This is the latest recevied weather packets stored in our database for station/object EB2GLU-13. If no packets are shown the sender has not sent any weather packets the latest 10 day(s).
| Time | Temp. | Humidity | Pressure | Rain* | Wind** | Luminosity | Snow |
|---|---|---|---|---|---|---|---|
| 1787428145 | 21.11° C | 84% | 1007.4 hPa | 0 mm | - | - | - |
| 1787426645 | 21.67° C | 82% | 1007.2 hPa | 0 mm | - | - | - |
| 1787425895 | 22.78° C | 80% | 1007.2 hPa | 0 mm | - | - | - |
| 1787425145 | 23.33° C | 78% | 1007 hPa | 0 mm | - | - | - |
| 1787424395 | 23.89° C | 77% | 1006.7 hPa | 0 mm | - | - | - |
| 1787423645 | 24.44° C | 75% | 1006.8 hPa | 0 mm | - | - | - |
| 1787422895 | 25.56° C | 71% | 1006.8 hPa | 0 mm | - | - | - |
| 1787422145 | 26.67° C | 69% | 1006.9 hPa | 0 mm | - | - | - |
| 1787421395 | 27.78° C | 65% | 1006.7 hPa | 0 mm | - | - | - |
| 1787420645 | 28.33° C | 59% | 1006.8 hPa | 0 mm | - | - | - |
| 1787419895 | 30° C | 56% | 1006.8 hPa | 0 mm | - | - | - |
| 1787419144 | 28.89° C | 60% | 1006.8 hPa | 0 mm | - | - | - |
| 1787418394 | 27.78° C | 63% | 1007 hPa | 0 mm | - | - | - |
| 1787417645 | 27.78° C | 61% | 1006.9 hPa | 0 mm | - | - | - |
| 1787416895 | 27.78° C | 61% | 1006.6 hPa | 0 mm | - | - | - |
| 1787416144 | 28.89° C | 58% | 1006.9 hPa | 0 mm | - | - | - |
| 1787415394 | 29.44° C | 57% | 1006.8 hPa | 0 mm | - | - | - |
| 1787414644 | 29.44° C | 57% | 1006.5 hPa | 0 mm | - | - | - |
| 1787413894 | 27.78° C | 61% | 1006.7 hPa | 0 mm | - | - | - |
| 1787413144 | 27.78° C | 62% | 1006.9 hPa | 0 mm | - | - | - |
| 1787412394 | 29.44° C | 58% | 1006.7 hPa | 0 mm | - | - | - |
| 1787411644 | 31.11° C | 54% | 1006.6 hPa | 0 mm | - | - | - |
| 1787410895 | 31.67° C | 53% | 1007 hPa | 0 mm | - | - | - |
| 1787410145 | 30.56° C | 55% | 1006.8 hPa | 0 mm | - | - | - |
| 1787409394 | 30.56° C | 54% | 1006.7 hPa | 0 mm | - | - | - |
* Rain latest hour (hover to see other rain measurements)
** Current wind speed in m/s (hover to see current wind gust speed)